Time;durP1;ratioP1;P1;durP2;ratioP2;P2;SDS_P1;SDS_P2;PMS_P1;PMS_P2;Temp;Humidity;BMP_temperature;BMP_pressure;BME280_temperature;BME280_humidity;BME280_pressure;Samples;Min_cycle;Max_cycle;Signal;HPM_P1;HPM_P2
2021/04/26 14:16:30;;;;;;;2.70;1.70;;;;;;;;;;5112236;27;20455;-70
2021/04/26 14:18:56;;;;;;;3.15;1.60;;;;;;;;;;5111852;28;20036;-66
2021/04/26 14:21:22;;;;;;;3.38;1.55;;;;;;;;;;5112093;28;20020;-69
2021/04/26 14:23:49;;;;;;;3.50;1.42;;;;;;;;;;5111476;28;20045;-71
2021/04/26 14:26:15;;;;;;;2.60;1.20;;;;;;;;;;5111827;28;20542;-69
2021/04/26 14:28:41;;;;;;;2.03;1.40;;;;;;;;;;5112657;28;20028;-72
2021/04/26 14:31:07;;;;;;;1.92;1.30;;;;;;;;;;5112981;28;20042;-72
2021/04/26 14:33:33;;;;;;;3.25;1.63;;;;;;;;;;5113220;28;20114;-72
2021/04/26 14:35:59;;;;;;;4.03;1.70;;;;;;;;;;5112313;28;20115;-70
2021/04/26 14:38:25;;;;;;;2.35;1.50;;;;;;;;;;5112073;28;20440;-71
2021/04/26 14:40:51;;;;;;;2.35;1.48;;;;;;;;;;5111856;28;20024;-70
2021/04/26 14:43:17;;;;;;;4.35;1.48;;;;;;;;;;5111893;28;20044;-71
2021/04/26 14:45:47;;;;;;;2.50;1.50;;;;;;;;;;5111835;28;20465;-70
2021/04/26 14:48:12;;;;;;;2.15;1.40;;;;;;;;;;5111707;28;20032;-72
2021/04/26 14:50:39;;;;;;;2.08;1.40;;;;;;;;;;5111191;28;20031;-69
2021/04/26 14:53:05;;;;;;;3.25;1.33;;;;;;;;;;5111017;28;20069;-73
2021/04/26 14:55:32;;;;;;;2.10;1.40;;;;;;;;;;5112681;28;20028;-71
2021/04/26 14:57:58;;;;;;;2.00;1.30;;;;;;;;;;5112145;28;20477;-68
2021/04/26 15:00:24;;;;;;;2.45;1.50;;;;;;;;;;5110789;28;20046;-68
2021/04/26 15:02:50;;;;;;;3.35;1.90;;;;;;;;;;5109190;28;20467;-69
2021/04/26 16:44:11;;;;;;;4.53;3.15;;;;;;;;;;5113145;27;20438;-69
2021/04/26 16:46:37;;;;;;;5.78;2.75;;;;;;;;;;5111994;28;20052;-68
2021/04/26 16:49:07;;;;;;;5.65;2.65;;;;;;;;;;5110894;28;20024;-69
2021/04/26 16:51:33;;;;;;;4.05;2.50;;;;;;;;;;5109540;28;20058;-69
2021/04/26 16:53:59;;;;;;;4.40;2.40;;;;;;;;;;5110900;28;20028;-67
2021/04/26 16:56:25;;;;;;;4.18;2.17;;;;;;;;;;5110766;28;20105;-67
2021/04/26 16:58:51;;;;;;;3.08;2.20;;;;;;;;;;5110784;28;20019;-69
2021/04/26 17:01:17;;;;;;;3.55;2.15;;;;;;;;;;5110973;28;20020;-69
2021/04/26 17:03:43;;;;;;;4.05;1.80;;;;;;;;;;5110882;28;20077;-68
2021/04/26 17:06:09;;;;;;;3.53;2.08;;;;;;;;;;5110649;28;20024;-69
2021/04/26 17:08:35;;;;;;;2.85;1.90;;;;;;;;;;5110495;28;20023;-69
2021/04/26 17:11:02;;;;;;;4.03;1.85;;;;;;;;;;5110773;28;20028;-69
2021/04/26 17:13:28;;;;;;;3.30;1.80;;;;;;;;;;5109419;28;20024;-69
2021/04/26 17:15:54;;;;;;;3.88;1.85;;;;;;;;;;5110580;28;20149;-69
2021/04/26 17:18:20;;;;;;;4.75;1.70;;;;;;;;;;5110312;28;20023;-69
2021/04/26 17:20:46;;;;;;;2.38;1.42;;;;;;;;;;5110302;28;20058;-68
2021/04/26 17:23:12;;;;;;;3.90;1.70;;;;;;;;;;5110398;28;20110;-69
2021/04/26 17:25:38;;;;;;;3.70;1.70;;;;;;;;;;5110196;28;20471;-70
2021/04/26 17:28:04;;;;;;;2.78;1.70;;;;;;;;;;5110216;28;20183;-70
2021/04/26 17:30:30;;;;;;;6.95;3.10;;;;;;;;;;5110521;28;20016;-68
2021/04/26 17:32:56;;;;;;;9.18;3.15;;;;;;;;;;5110144;28;20373;-67
2021/04/26 17:35:22;;;;;;;8.48;3.38;;;;;;;;;;5110016;28;20027;-69
2021/04/26 17:37:50;;;;;;;9.02;3.25;;;;;;;;;;5110084;28;20048;-68
2021/04/26 17:40:16;;;;;;;8.63;2.90;;;;;;;;;;5108778;28;20084;-69
2021/04/26 17:42:42;;;;;;;7.13;2.85;;;;;;;;;;5108739;28;20024;-68
2021/04/26 17:45:09;;;;;;;8.18;3.15;;;;;;;;;;5108678;28;20120;-68
2021/04/26 17:47:36;;;;;;;7.97;3.10;;;;;;;;;;5110088;28;20027;-68
2021/04/26 17:50:02;;;;;;;9.65;3.10;;;;;;;;;;5110012;28;20034;-69
2021/04/26 17:52:28;;;;;;;9.98;2.97;;;;;;;;;;5109799;28;20020;-69
2021/04/26 17:54:54;;;;;;;9.93;3.22;;;;;;;;;;5100223;28;20457;-68
2021/04/26 17:57:20;;;;;;;10.25;3.38;;;;;;;;;;5096148;28;20478;-68
2021/04/26 17:59:46;;;;;;;10.77;3.65;;;;;;;;;;5096332;28;20039;-66
2021/04/26 18:02:12;;;;;;;9.18;6.28;;;;;;;;;;5096246;28;20055;-68
2021/04/26 18:04:38;;;;;;;12.88;7.00;;;;;;;;;;5094755;28;20089;-68
2021/04/26 18:07:04;;;;;;;8.55;6.25;;;;;;;;;;5096020;28;20028;-67
2021/04/26 18:09:31;;;;;;;10.77;7.03;;;;;;;;;;5095911;28;20028;-69
2021/04/26 18:11:58;;;;;;;10.63;6.63;;;;;;;;;;5094646;28;20020;-68
2021/04/26 18:14:24;;;;;;;9.95;6.20;;;;;;;;;;5096205;28;20020;-68
2021/04/26 18:16:50;;;;;;;10.70;5.57;;;;;;;;;;5095984;28;20021;-67
2021/04/26 18:19:16;;;;;;;11.68;6.28;;;;;;;;;;5094232;28;20397;-68
2021/04/26 18:21:43;;;;;;;10.00;6.25;;;;;;;;;;5095591;28;20069;-69
2021/04/26 18:24:09;;;;;;;15.20;6.72;;;;;;;;;;5094158;28;20405;-70
2021/04/26 18:26:38;;;;;;;8.23;5.90;;;;;;;;;;5095446;28;20078;-70
2021/04/26 18:29:04;;;;;;;12.15;6.53;;;;;;;;;;5095403;28;20397;-70
2021/04/26 18:31:31;;;;;;;8.18;5.35;;;;;;;;;;5096147;28;20028;-70
2021/04/26 18:33:57;;;;;;;8.57;5.85;;;;;;;;;;5095768;28;20020;-70
2021/04/26 18:36:23;;;;;;;9.52;5.88;;;;;;;;;;5095937;28;20031;-68
2021/04/26 18:38:49;;;;;;;11.50;5.40;;;;;;;;;;5095324;28;20028;-70
2021/04/26 18:41:15;;;;;;;9.02;5.53;;;;;;;;;;5095319;28;20036;-69
2021/04/26 18:43:41;;;;;;;7.65;5.00;;;;;;;;;;5095085;28;20570;-70
2021/04/26 18:46:07;;;;;;;7.30;5.35;;;;;;;;;;5093861;28;20028;-70
2021/04/26 18:48:34;;;;;;;7.50;4.93;;;;;;;;;;5094967;28;20042;-67
2021/04/26 18:51:01;;;;;;;9.40;5.70;;;;;;;;;;5095021;28;20159;-66
2021/04/26 18:56:13;;;;;;;8.15;5.22;;;;;;;;;;5068119;28;20859;-85
2021/04/26 18:58:40;;;;;;;6.38;4.78;;;;;;;;;;5069048;22;20053;-76
2021/04/26 19:01:07;;;;;;;6.45;5.75;;;;;;;;;;5025945;28;20025;-76
2021/04/26 19:03:33;;;;;;;6.88;5.45;;;;;;;;;;5026005;28;20375;-76
2021/04/26 19:06:00;;;;;;;7.22;5.30;;;;;;;;;;5025823;28;20587;-76
2021/04/26 19:08:26;;;;;;;7.93;5.47;;;;;;;;;;5025747;28;20115;-76
2021/04/26 19:10:52;;;;;;;8.38;5.43;;;;;;;;;;5026815;28;20026;-77
2021/04/26 19:13:18;;;;;;;9.05;5.35;;;;;;;;;;5026659;28;20048;-77
2021/04/26 19:15:44;;;;;;;8.05;5.30;;;;;;;;;;5026206;28;20050;-77
2021/04/26 19:18:10;;;;;;;7.78;5.18;;;;;;;;;;5024472;28;20021;-77
2021/04/26 19:20:36;;;;;;;7.47;4.80;;;;;;;;;;5025861;28;20018;-76
2021/04/26 19:23:03;;;;;;;8.38;5.40;;;;;;;;;;5024870;28;20371;-77
2021/04/26 19:25:29;;;;;;;8.50;4.55;;;;;;;;;;5025631;28;20025;-77
2021/04/26 19:27:55;;;;;;;7.43;4.90;;;;;;;;;;5025537;28;20093;-78
2021/04/26 19:30:22;;;;;;;8.52;5.68;;;;;;;;;;5023868;28;20121;-77
2021/04/26 19:32:48;;;;;;;8.20;4.47;;;;;;;;;;5025448;28;20025;-77
2021/04/26 19:35:15;;;;;;;11.30;5.63;;;;;;;;;;5025389;28;20137;-77
2021/04/26 19:37:41;;;;;;;7.93;5.00;;;;;;;;;;5025760;28;20112;-77
2021/04/26 19:40:07;;;;;;;7.60;5.30;;;;;;;;;;5024157;28;20076;-77
2021/04/26 19:42:33;;;;;;;8.23;4.85;;;;;;;;;;5023840;28;20029;-77
2021/04/26 19:44:59;;;;;;;8.00;5.05;;;;;;;;;;5025711;28;20387;-77
2021/04/26 19:47:27;;;;;;;5.82;4.43;;;;;;;;;;5023771;28;20060;-76
2021/04/26 19:49:53;;;;;;;10.02;4.97;;;;;;;;;;5025809;28;20018;-77
2021/04/26 19:52:20;;;;;;;7.22;5.65;;;;;;;;;;5025887;28;20022;-77
2021/04/26 19:54:46;;;;;;;7.22;5.18;;;;;;;;;;5026625;28;20034;-77
2021/04/26 19:57:12;;;;;;;6.85;5.13;;;;;;;;;;5025588;28;20026;-77
2021/04/26 19:59:38;;;;;;;8.02;5.15;;;;;;;;;;5025116;28;20041;-77
2021/04/26 20:02:04;;;;;;;7.72;4.68;;;;;;;;;;5025415;28;20052;-77
2021/04/26 20:04:30;;;;;;;11.05;4.88;;;;;;;;;;5025283;28;20030;-77
2021/04/26 20:06:56;;;;;;;7.88;5.43;;;;;;;;;;5015254;28;20129;-77
2021/04/26 20:09:22;;;;;;;8.75;4.93;;;;;;;;;;5011595;28;20137;-77
2021/04/26 20:11:48;;;;;;;8.85;4.78;;;;;;;;;;5011617;28;20092;-77
2021/04/26 20:14:14;;;;;;;7.55;4.65;;;;;;;;;;5011592;28;20022;-77
2021/04/26 20:16:40;;;;;;;7.72;4.68;;;;;;;;;;5011519;28;20057;-77
2021/04/26 20:19:07;;;;;;;6.03;4.32;;;;;;;;;;5011577;28;20030;-77
2021/04/26 20:21:33;;;;;;;6.55;4.65;;;;;;;;;;5009921;28;20026;-77
2021/04/26 20:23:59;;;;;;;7.70;4.78;;;;;;;;;;5011746;28;20506;-77
2021/04/26 20:26:25;;;;;;;10.07;5.30;;;;;;;;;;5009968;28;20087;-77
2021/04/26 20:28:52;;;;;;;7.35;5.07;;;;;;;;;;5012678;28;20022;-77
2021/04/26 20:31:18;;;;;;;9.38;5.70;;;;;;;;;;5009624;28;20168;-79
2021/04/26 20:33:44;;;;;;;8.27;5.03;;;;;;;;;;5011153;28;20073;-76
2021/04/26 20:36:10;;;;;;;7.93;4.80;;;;;;;;;;5010854;28;20143;-77
2021/04/26 20:38:36;;;;;;;8.20;4.45;;;;;;;;;;5010965;28;20049;-77
2021/04/26 20:41:03;;;;;;;10.55;5.35;;;;;;;;;;5009336;28;20403;-77
2021/04/26 20:43:29;;;;;;;6.57;5.20;;;;;;;;;;5009316;28;20017;-76
2021/04/26 20:45:55;;;;;;;11.32;5.40;;;;;;;;;;5008995;28;20022;-77
2021/04/26 20:48:21;;;;;;;8.75;5.20;;;;;;;;;;5009552;28;20030;-77
2021/04/26 20:50:47;;;;;;;7.97;5.10;;;;;;;;;;5009122;28;20058;-77
2021/04/26 20:53:13;;;;;;;6.57;5.03;;;;;;;;;;5010637;28;20314;-77
2021/04/26 20:55:40;;;;;;;6.97;4.97;;;;;;;;;;5010525;28;20463;-77
2021/04/26 20:58:06;;;;;;;9.68;5.07;;;;;;;;;;5010337;28;20100;-77
2021/04/26 21:00:32;;;;;;;9.63;5.20;;;;;;;;;;5009454;28;20372;-77
2021/04/26 21:03:00;;;;;;;8.70;4.85;;;;;;;;;;5010424;28;20093;-77
2021/04/26 21:05:26;;;;;;;7.85;4.82;;;;;;;;;;5010410;28;20085;-77
2021/04/26 21:07:52;;;;;;;7.13;4.70;;;;;;;;;;5010468;28;20033;-77
2021/04/26 21:10:19;;;;;;;6.93;4.82;;;;;;;;;;5008659;28;20025;-77
2021/04/26 21:12:45;;;;;;;7.50;4.90;;;;;;;;;;5010008;28;20033;-76
2021/04/26 21:15:12;;;;;;;8.52;5.25;;;;;;;;;;5009845;28;20091;-77
2021/04/26 21:17:38;;;;;;;7.88;4.57;;;;;;;;;;5007077;28;20053;-72
2021/04/26 21:20:05;;;;;;;9.55;4.97;;;;;;;;;;5009771;28;20124;-72
2021/04/26 21:22:31;;;;;;;8.55;5.75;;;;;;;;;;5009697;28;20041;-72
2021/04/26 21:24:57;;;;;;;10.98;5.55;;;;;;;;;;5009831;28;20367;-72
2021/04/26 21:27:24;;;;;;;8.90;4.63;;;;;;;;;;5008088;28;20463;-72
2021/04/26 21:29:50;;;;;;;9.23;5.25;;;;;;;;;;5009637;28;20033;-72
2021/04/26 21:32:18;;;;;;;9.65;5.47;;;;;;;;;;5009429;28;20061;-72
2021/04/26 21:34:45;;;;;;;9.98;6.03;;;;;;;;;;5007851;28;20018;-71
2021/04/26 21:37:11;;;;;;;8.20;5.40;;;;;;;;;;5009236;28;20047;-73
2021/04/26 21:39:37;;;;;;;8.05;5.38;;;;;;;;;;5009308;28;20120;-72
2021/04/26 21:42:03;;;;;;;8.35;5.30;;;;;;;;;;5007642;28;20059;-72
2021/04/26 21:44:29;;;;;;;8.23;5.50;;;;;;;;;;5009503;28;20136;-72
2021/04/26 21:46:55;;;;;;;7.47;4.85;;;;;;;;;;5007727;28;20025;-72
2021/04/26 21:49:21;;;;;;;9.25;5.55;;;;;;;;;;5009242;28;20037;-72
2021/04/26 21:51:47;;;;;;;7.53;4.90;;;;;;;;;;5009166;28;20030;-71
2021/04/26 21:54:13;;;;;;;8.25;4.93;;;;;;;;;;5009268;28;20493;-72
2021/04/26 21:56:39;;;;;;;6.82;4.35;;;;;;;;;;5009311;28;20116;-77
2021/04/26 21:59:05;;;;;;;6.20;4.85;;;;;;;;;;5008992;28;20053;-77
2021/04/26 22:01:31;;;;;;;8.35;5.50;;;;;;;;;;5009321;28;20056;-77
2021/04/26 22:03:57;;;;;;;7.13;4.47;;;;;;;;;;5007458;28;20534;-76
2021/04/26 22:06:23;;;;;;;6.25;4.53;;;;;;;;;;5008915;28;20378;-77
2021/04/26 22:08:52;;;;;;;7.03;4.68;;;;;;;;;;5009199;28;20022;-77
2021/04/26 22:11:18;;;;;;;6.82;4.70;;;;;;;;;;5009115;28;20033;-77
2021/04/26 22:13:44;;;;;;;11.07;4.85;;;;;;;;;;5009206;28;20109;-76
2021/04/26 22:16:10;;;;;;;7.78;4.55;;;;;;;;;;5009245;28;20416;-77
2021/04/26 22:18:36;;;;;;;7.18;4.32;;;;;;;;;;5009250;28;20025;-77
2021/04/26 22:21:02;;;;;;;7.40;4.60;;;;;;;;;;5009484;28;20041;-76
2021/04/26 22:23:28;;;;;;;7.30;4.47;;;;;;;;;;5009807;28;20125;-77
2021/04/26 22:25:55;;;;;;;7.70;4.65;;;;;;;;;;5009536;28;20079;-77
2021/04/26 22:28:21;;;;;;;7.07;4.75;;;;;;;;;;5008906;28;20021;-77
2021/04/26 22:30:47;;;;;;;8.48;4.45;;;;;;;;;;5009154;28;20113;-76
2021/04/26 22:33:13;;;;;;;7.75;4.80;;;;;;;;;;5009364;28;20048;-76
2021/04/26 22:35:39;;;;;;;6.63;4.63;;;;;;;;;;5009005;28;20033;-76
2021/04/26 22:38:05;;;;;;;7.25;4.57;;;;;;;;;;5007447;28;20041;-74
2021/04/26 22:40:32;;;;;;;8.50;4.53;;;;;;;;;;5008658;28;20079;-75
2021/04/26 22:43:02;;;;;;;6.60;4.25;;;;;;;;;;5007043;28;20018;-76
2021/04/26 22:45:28;;;;;;;6.55;4.82;;;;;;;;;;5009066;28;20022;-76
2021/04/26 22:47:54;;;;;;;7.13;4.60;;;;;;;;;;5008466;28;20027;-77
2021/04/26 22:50:21;;;;;;;5.82;4.15;;;;;;;;;;5008921;28;20071;-76
2021/04/26 22:52:47;;;;;;;7.28;4.45;;;;;;;;;;5007404;28;20049;-76
2021/04/26 22:55:15;;;;;;;6.63;4.20;;;;;;;;;;5008584;28;20125;-76
2021/04/26 22:57:41;;;;;;;4.72;3.72;;;;;;;;;;5007197;28;20069;-76
2021/04/26 23:00:10;;;;;;;7.43;4.28;;;;;;;;;;5008748;28;20065;-76
2021/04/26 23:02:36;;;;;;;6.95;3.78;;;;;;;;;;5008680;28;20021;-76
2021/04/26 23:05:06;;;;;;;5.30;3.95;;;;;;;;;;5008855;28;20030;-76
2021/04/26 23:07:33;;;;;;;5.50;3.95;;;;;;;;;;5008810;28;20030;-76
2021/04/26 23:09:59;;;;;;;6.88;4.32;;;;;;;;;;5009042;28;20029;-76
2021/04/26 23:12:25;;;;;;;6.70;3.92;;;;;;;;;;5008921;28;20113;-76
2021/04/26 23:14:51;;;;;;;5.80;4.22;;;;;;;;;;5007052;28;20026;-76
2021/04/26 23:17:17;;;;;;;6.40;3.75;;;;;;;;;;5007020;28;20033;-76
2021/04/26 23:19:43;;;;;;;6.55;4.15;;;;;;;;;;5008503;28;20104;-76
2021/04/26 23:22:09;;;;;;;6.85;3.90;;;;;;;;;;5008698;28;20049;-76
2021/04/26 23:24:35;;;;;;;6.25;4.40;;;;;;;;;;5008637;28;20587;-76
2021/04/26 23:27:01;;;;;;;5.53;3.92;;;;;;;;;;5007006;28;20026;-76
2021/04/26 23:29:27;;;;;;;6.72;3.63;;;;;;;;;;5008989;28;20409;-76
2021/04/26 23:31:53;;;;;;;4.97;3.70;;;;;;;;;;5008884;28;20547;-76
2021/04/26 23:34:20;;;;;;;7.03;4.22;;;;;;;;;;5006907;28;20037;-76
2021/04/26 23:36:46;;;;;;;6.45;3.80;;;;;;;;;;5009046;28;20030;-75
2021/04/26 23:39:12;;;;;;;6.47;3.97;;;;;;;;;;5007023;28;20124;-76
2021/04/26 23:41:38;;;;;;;5.72;3.75;;;;;;;;;;5009973;28;20424;-75
2021/04/26 23:44:04;;;;;;;7.30;3.80;;;;;;;;;;5010836;28;20030;-76
2021/04/26 23:46:30;;;;;;;5.63;3.70;;;;;;;;;;5010490;28;20088;-76
2021/04/26 23:48:56;;;;;;;5.70;3.60;;;;;;;;;;5012195;28;20033;-76
2021/04/26 23:51:22;;;;;;;6.78;3.65;;;;;;;;;;5012319;28;20121;-76
2021/04/26 23:53:48;;;;;;;6.65;3.50;;;;;;;;;;5010266;28;20026;-75
2021/04/26 23:56:14;;;;;;;6.28;3.95;;;;;;;;;;5012361;28;20022;-75
2021/04/26 23:58:40;;;;;;;8.13;3.75;;;;;;;;;;5011514;28;20022;-76
